FDX34 KMEM-EGSS
Flight info
| Callsign | FDX34 |
|---|---|
| Flight time | N/A |
| Altitude | 31000 |
| Route | GOETZ7 DIYAB DCT HITMN Q34 RBV Q430 ACK DCT WHALE/N0490F330 N93B SUPRY/M084F330 DCT 46N050W 49N040W 50N030W 50N020W DCT BEDRA DCT NASBA DCT GAPLI/N0485F330 DCT SIDDI DCT DAWLY DCT ELRIP DCT OTMET N17 TELTU |
| Aircraft | MD11/H-SDE1E2E3FGHIJ2J3J4J5M1RWXY/LB1D1 |
Departure
| Time | N/A |
|---|---|
| Airport | Memphis International Airport (KMEM) |
Arrival
| Time | 2026-05-05 04:54 |
|---|---|
| Airport | London Stansted Airport (EGSS) |
| Time | Latitude | Longitude | Altitude | Speed | Heading |
|---|---|---|---|---|---|
| 2026-05-05 04:40 | 51.96045 | 0.04012 | 12031 ft | 266 kts | 22° |
| 2026-05-05 04:40 | 51.97732 | 0.05203 | 11626 ft | 263 kts | 21° |
| 2026-05-05 04:40 | 51.99490 | 0.05943 | 11214 ft | 260 kts | 6° |
| 2026-05-05 04:40 | 52.01289 | 0.06175 | 10829 ft | 259 kts | 1° |
| 2026-05-05 04:41 | 52.03060 | 0.06298 | 10443 ft | 257 kts | 0° |
| 2026-05-05 04:41 | 52.04846 | 0.06402 | 10012 ft | 256 kts | 0° |
| 2026-05-05 04:41 | 52.06614 | 0.06503 | 9546 ft | 253 kts | 360° |
| 2026-05-05 04:41 | 52.08363 | 0.06601 | 9072 ft | 251 kts | 0° |
| 2026-05-05 04:42 | 52.10098 | 0.06621 | 8592 ft | 247 kts | 351° |
| 2026-05-05 04:42 | 52.11654 | 0.05618 | 8168 ft | 240 kts | 321° |
| 2026-05-05 04:42 | 52.12647 | 0.03485 | 7779 ft | 238 kts | 290° |
| 2026-05-05 04:42 | 52.12803 | 0.00898 | 7385 ft | 229 kts | 259° |
| 2026-05-05 04:43 | 52.12331 | -0.01554 | 7124 ft | 228 kts | 249° |
| 2026-05-05 04:43 | 52.11662 | -0.03898 | 7087 ft | 230 kts | 243° |
| 2026-05-05 04:43 | 52.10646 | -0.05893 | 7053 ft | 232 kts | 215° |
| 2026-05-05 04:43 | 52.09146 | -0.06803 | 7088 ft | 233 kts | 190° |
| 2026-05-05 04:44 | 52.07521 | -0.06919 | 7068 ft | 236 kts | 174° |
| 2026-05-05 04:44 | 52.05891 | -0.06520 | 7024 ft | 238 kts | 171° |
| 2026-05-05 04:44 | 52.04270 | -0.06069 | 6979 ft | 236 kts | 171° |
| 2026-05-05 04:44 | 52.02687 | -0.05344 | 6959 ft | 237 kts | 155° |
| 2026-05-05 04:45 | 52.01396 | -0.03733 | 6955 ft | 237 kts | 127° |
| 2026-05-05 04:45 | 52.00636 | -0.01366 | 6948 ft | 238 kts | 110° |
| 2026-05-05 04:45 | 52.00083 | 0.01159 | 6906 ft | 237 kts | 108° |
| 2026-05-05 04:45 | 51.99571 | 0.03694 | 6845 ft | 235 kts | 104° |
| 2026-05-05 04:46 | 51.99396 | 0.06322 | 6595 ft | 236 kts | 82° |
| 2026-05-05 04:46 | 51.99830 | 0.08825 | 6224 ft | 230 kts | 68° |
| 2026-05-05 04:46 | 52.00429 | 0.11222 | 5856 ft | 228 kts | 66° |
| 2026-05-05 04:46 | 52.01040 | 0.13580 | 5526 ft | 225 kts | 66° |
| 2026-05-05 04:47 | 52.01645 | 0.15911 | 5197 ft | 223 kts | 66° |
| 2026-05-05 04:47 | 52.02244 | 0.18219 | 4884 ft | 220 kts | 66° |
| 2026-05-05 04:47 | 52.02835 | 0.20502 | 4558 ft | 219 kts | 66° |
| 2026-05-05 04:47 | 52.03420 | 0.22768 | 4226 ft | 217 kts | 66° |
| 2026-05-05 04:48 | 52.04001 | 0.25022 | 3919 ft | 215 kts | 66° |
| 2026-05-05 04:48 | 52.04570 | 0.27231 | 3613 ft | 214 kts | 65° |
| 2026-05-05 04:48 | 52.05150 | 0.29484 | 3307 ft | 213 kts | 65° |
| 2026-05-05 04:48 | 52.05714 | 0.31677 | 3040 ft | 212 kts | 65° |
| 2026-05-05 04:49 | 52.06177 | 0.33857 | 2951 ft | 189 kts | 76° |
| 2026-05-05 04:49 | 52.06192 | 0.35932 | 2872 ft | 188 kts | 99° |
| 2026-05-05 04:49 | 52.05658 | 0.37881 | 2823 ft | 189 kts | 121° |
| 2026-05-05 04:49 | 52.04875 | 0.39622 | 2779 ft | 191 kts | 129° |
| 2026-05-05 04:50 | 52.03839 | 0.40934 | 2706 ft | 194 kts | 154° |
| 2026-05-05 04:50 | 52.02530 | 0.41347 | 2628 ft | 195 kts | 184° |
| 2026-05-05 04:50 | 52.01180 | 0.41047 | 2557 ft | 196 kts | 191° |
| 2026-05-05 04:50 | 51.99925 | 0.40243 | 2478 ft | 193 kts | 217° |
| 2026-05-05 04:51 | 51.98847 | 0.38919 | 2507 ft | 195 kts | 220° |
| 2026-05-05 04:51 | 51.97798 | 0.37533 | 2495 ft | 195 kts | 223° |
| 2026-05-05 04:51 | 51.96823 | 0.36090 | 2411 ft | 182 kts | 225° |
| 2026-05-05 04:51 | 51.95920 | 0.34723 | 2141 ft | 175 kts | 225° |
| 2026-05-05 04:52 | 51.95030 | 0.33371 | 1929 ft | 175 kts | 225° |
| 2026-05-05 04:52 | 51.94146 | 0.32030 | 1689 ft | 174 kts | 225° |
| 2026-05-05 04:52 | 51.93265 | 0.30696 | 1442 ft | 172 kts | 225° |
| 2026-05-05 04:52 | 51.92395 | 0.29372 | 1167 ft | 171 kts | 224° |
| 2026-05-05 04:53 | 51.91547 | 0.28067 | 914 ft | 167 kts | 223° |
| 2026-05-05 04:53 | 51.90699 | 0.26792 | 681 ft | 165 kts | 223° |
| 2026-05-05 04:53 | 51.89864 | 0.25530 | 480 ft | 165 kts | 223° |
| 2026-05-05 04:53 | 51.89034 | 0.24289 | 361 ft | 152 kts | 224° |
| 2026-05-05 04:54 | 51.88393 | 0.23319 | 354 ft | 97 kts | 222° |
| 2026-05-05 04:54 | 51.88043 | 0.22790 | 348 ft | 41 kts | 224° |
| 2026-05-05 04:54 | 51.87954 | 0.22683 | 349 ft | 7 kts | 184° |
| 2026-05-05 04:54 | 51.87915 | 0.22715 | 351 ft | 6 kts | 139° |
| 2026-05-05 04:55 | 51.87884 | 0.22767 | 353 ft | 7 kts | 133° |
| 2026-05-05 04:55 | 51.87852 | 0.22822 | 353 ft | 7 kts | 133° |
| 2026-05-05 04:55 | 51.87815 | 0.22888 | 353 ft | 9 kts | 132° |
| 2026-05-05 04:55 | 51.87762 | 0.22979 | 352 ft | 13 kts | 133° |
| 2026-05-05 04:56 | 51.87738 | 0.23100 | 352 ft | 10 kts | 72° |
| 2026-05-05 04:56 | 51.87782 | 0.23186 | 353 ft | 10 kts | 44° |
| 2026-05-05 04:56 | 51.87843 | 0.23278 | 344 ft | 14 kts | 43° |
| 2026-05-05 04:56 | 51.87928 | 0.23406 | 354 ft | 18 kts | 43° |
| 2026-05-05 04:57 | 51.88019 | 0.23541 | 353 ft | 17 kts | 43° |
| 2026-05-05 04:57 | 51.88105 | 0.23672 | 354 ft | 17 kts | 43° |
| 2026-05-05 04:57 | 51.88191 | 0.23798 | 354 ft | 16 kts | 42° |
| 2026-05-05 04:57 | 51.88273 | 0.23919 | 356 ft | 16 kts | 44° |
| 2026-05-05 04:58 | 51.88349 | 0.24036 | 353 ft | 14 kts | 43° |
| 2026-05-05 04:58 | 51.88419 | 0.24141 | 354 ft | 13 kts | 43° |
| 2026-05-05 04:58 | 51.88483 | 0.24238 | 358 ft | 12 kts | 43° |
| 2026-05-05 04:58 | 51.88539 | 0.24328 | 359 ft | 10 kts | 49° |
| 2026-05-05 04:59 | 51.88539 | 0.24405 | 359 ft | 5 kts | 122° |
| 2026-05-05 04:59 | 51.88524 | 0.24436 | 360 ft | 2 kts | 128° |
| 2026-05-05 04:59 | 51.88521 | 0.24442 | 360 ft | 0 kts | 128° |
| 2026-05-05 04:59 | 51.88515 | 0.24467 | 361 ft | 3 kts | 103° |
| 2026-05-05 05:00 | 51.88517 | 0.24482 | 353 ft | 2 kts | 78° |
| 2026-05-05 05:00 | 51.88533 | 0.24516 | 363 ft | 4 kts | 51° |
| 2026-05-05 05:00 | 51.88547 | 0.24540 | 358 ft | 2 kts | 44° |
| 2026-05-05 05:00 | 51.88554 | 0.24551 | 360 ft | 1 kts | 42° |
| 2026-05-05 05:01 | 51.88555 | 0.24551 | 360 ft | 0 kts | 42° |